Time;durP1;ratioP1;P1;durP2;ratioP2;P2;SDS_P1;SDS_P2;PMS_P1;PMS_P2;Temp;Humidity;BMP_temperature;BMP_pressure;BME280_temperature;BME280_humidity;BME280_pressure;Samples;Min_cycle;Max_cycle;Signal;HPM_P1;HPM_P2
2021/10/14 00:01:15;;;;;;;151.70;64.70;;;;;;;10.27;80.70;99316.69;4762107;29;20417;-85
2021/10/14 00:03:42;;;;;;;147.23;65.97;;;;;;;10.29;80.80;99320.72;4807270;29;20043;-87
2021/10/14 00:06:11;;;;;;;143.98;64.80;;;;;;;10.31;80.90;99336.81;4776300;29;20042;-85
2021/10/14 00:08:37;;;;;;;155.55;65.53;;;;;;;10.25;81.18;99335.28;4807348;29;20050;-85
2021/10/14 00:11:04;;;;;;;151.13;64.55;;;;;;;10.04;81.43;99297.53;4806706;29;20074;-85
2021/10/14 00:13:33;;;;;;;146.20;62.55;;;;;;;10.11;81.32;99317.03;4806071;29;20043;-84
2021/10/14 00:16:00;;;;;;;154.27;65.72;;;;;;;10.24;80.97;99325.47;4796397;29;20043;-84
2021/10/14 00:18:26;;;;;;;171.07;73.47;;;;;;;9.94;80.59;99286.84;4789967;29;20084;-88
2021/10/14 00:20:52;;;;;;;150.95;67.25;;;;;;;10.32;79.95;99330.22;4790211;29;20075;-84
2021/10/14 00:23:18;;;;;;;160.73;66.95;;;;;;;10.25;79.83;99313.44;4789299;29;20420;-84
2021/10/14 00:25:45;;;;;;;151.68;65.45;;;;;;;10.30;79.57;99318.81;4820487;29;20046;-85
2021/10/14 00:28:11;;;;;;;145.47;64.70;;;;;;;10.18;79.37;99293.94;4771939;30;20047;-85
2021/10/14 00:30:39;;;;;;;144.45;62.08;;;;;;;10.32;79.07;99311.09;4757788;30;20109;-85
2021/10/14 00:33:05;;;;;;;130.93;60.05;;;;;;;10.27;78.83;99303.84;4801998;29;20043;-84
2021/10/14 00:35:33;;;;;;;125.35;57.33;;;;;;;10.23;78.84;99293.78;4790495;29;20075;-85
2021/10/14 00:37:59;;;;;;;139.88;59.17;;;;;;;10.21;78.62;99287.84;4806641;29;20071;-85
2021/10/14 00:40:26;;;;;;;119.40;57.25;;;;;;;10.30;78.66;99310.63;4806610;29;20057;-86
2021/10/14 00:42:52;;;;;;;145.95;58.63;;;;;;;10.26;78.68;99298.66;4790587;29;20078;-85
2021/10/14 00:45:20;;;;;;;130.70;58.03;;;;;;;10.31;78.78;99302.09;4789820;29;20051;-84
2021/10/14 00:47:45;;;;;;;;;;;;;;;10.31;78.89;99298.56;4807112;29;20042;-84
2021/10/14 00:50:12;;;;;;;136.15;56.97;;;;;;;10.30;79.07;99300.47;4807243;29;20030;-88
2021/10/14 00:52:41;;;;;;;108.70;50.20;;;;;;;10.19;78.73;99281.88;4776035;29;20154;-86
2021/10/14 00:55:11;;;;;;;103.85;48.85;;;;;;;10.23;78.75;99286.44;4790238;29;20051;-85
2021/10/14 00:57:38;;;;;;;97.60;46.22;;;;;;;10.11;78.90;99254.19;4775364;29;20420;-85
2021/10/14 01:00:06;;;;;;;97.55;42.40;;;;;;;10.22;78.65;99281.25;4805654;29;20047;-87
2021/10/14 01:02:32;;;;;;;96.40;41.65;;;;;;;10.15;78.37;99261.78;4806357;29;20062;-85
2021/10/14 01:04:59;;;;;;;90.70;41.63;;;;;;;10.22;78.34;99273.88;4772164;30;20039;-84
2021/10/14 01:07:25;;;;;;;100.20;42.80;;;;;;;10.26;78.34;99280.34;4788026;30;20131;-84
2021/10/14 01:09:51;;;;;;;94.47;41.90;;;;;;;10.23;78.34;99269.22;4787892;30;20599;-84
2021/10/14 01:12:18;;;;;;;102.20;42.70;;;;;;;10.10;78.25;99251.78;4787187;30;20139;-85
2021/10/14 01:14:46;;;;;;;103.55;42.55;;;;;;;10.26;78.30;99272.16;4801364;29;20147;-84
2021/10/14 01:17:12;;;;;;;90.32;40.60;;;;;;;10.24;78.48;99268.91;4803157;29;20049;-85
2021/10/14 01:19:43;;;;;;;94.93;41.85;;;;;;;10.30;78.05;99278.63;4805716;29;20104;-88
2021/10/14 01:22:10;;;;;;;105.32;44.90;;;;;;;10.23;77.84;99266.47;4805371;29;20471;-85
2021/10/14 01:24:38;;;;;;;116.78;44.25;;;;;;;10.26;77.60;99272.16;4805222;29;20043;-85
2021/10/14 01:27:06;;;;;;;103.35;46.30;;;;;;;10.24;77.56;99265.38;4789270;29;20055;-85
2021/10/14 01:29:34;;;;;;;101.50;43.92;;;;;;;9.99;77.38;99228.56;4805255;29;20070;-85
2021/10/14 01:32:02;;;;;;;110.22;46.40;;;;;;;10.04;77.55;99258.50;4774857;29;20053;-85
2021/10/14 01:34:28;;;;;;;120.80;49.65;;;;;;;10.14;77.61;99265.63;4805937;29;20142;-85
2021/10/14 01:36:54;;;;;;;102.63;46.63;;;;;;;9.98;77.67;99255.06;4789712;29;20090;-88
2021/10/14 01:39:21;;;;;;;127.72;48.90;;;;;;;10.05;77.86;99271.03;4805416;29;20533;-85
2021/10/14 01:41:49;;;;;;;110.75;49.53;;;;;;;9.99;77.80;99264.88;4789151;29;20554;-84
2021/10/14 01:44:16;;;;;;;106.15;48.63;;;;;;;9.94;77.85;99250.56;4788938;29;20073;-86
2021/10/14 01:46:42;;;;;;;110.78;47.10;;;;;;;9.92;78.16;99252.78;4804751;29;20081;-84
2021/10/14 01:49:08;;;;;;;111.72;48.53;;;;;;;10.00;78.01;99274.69;4804969;29;20070;-84
2021/10/14 01:51:35;;;;;;;113.53;50.03;;;;;;;10.04;77.82;99274.88;4804995;29;20046;-85
2021/10/14 01:54:03;;;;;;;117.07;49.58;;;;;;;10.00;77.41;99266.50;4788782;29;20046;-84
2021/10/14 01:56:29;;;;;;;108.55;47.65;;;;;;;10.12;77.13;99277.66;4788351;29;20050;-85
2021/10/14 01:58:55;;;;;;;123.55;50.35;;;;;;;10.04;77.29;99255.75;4788392;29;20503;-86
2021/10/14 02:01:21;;;;;;;116.35;48.45;;;;;;;10.13;77.03;99262.06;4788752;29;20050;-86
2021/10/14 02:03:49;;;;;;;109.68;47.33;;;;;;;9.95;76.75;99246.69;4788820;29;20047;-87
2021/10/14 02:06:15;;;;;;;105.85;48.78;;;;;;;9.99;76.93;99264.88;4804732;29;20505;-85
2021/10/14 02:08:41;;;;;;;113.32;48.85;;;;;;;9.91;77.32;99256.63;4773382;29;20039;-84
2021/10/14 02:11:07;;;;;;;116.97;48.28;;;;;;;9.96;77.36;99268.22;4789847;29;20525;-86
2021/10/14 02:13:53;;;;;;;119.43;48.50;;;;;;;10.04;76.93;99272.16;4795221;29;20081;-86
2021/10/14 02:16:21;;;;;;;110.55;46.20;;;;;;;9.86;76.88;99258.34;4809628;29;20133;-85
2021/10/14 02:18:47;;;;;;;113.95;47.85;;;;;;;9.93;77.17;99268.84;4808915;29;20052;-85
2021/10/14 02:21:15;;;;;;;122.40;46.03;;;;;;;9.90;77.06;99272.22;4793068;29;20043;-84
2021/10/14 02:23:41;;;;;;;109.07;45.95;;;;;;;9.70;77.45;99253.56;4762523;29;20042;-90
2021/10/14 02:26:08;;;;;;;105.57;44.08;;;;;;;9.75;77.59;99264.38;4808227;29;20125;-88
2021/10/14 02:28:34;;;;;;;98.03;41.63;;;;;;;9.50;77.84;99236.53;4807695;29;20134;-87
2021/10/14 02:31:00;;;;;;;99.30;43.22;;;;;;;9.60;78.23;99262.78;4806996;29;20047;-85
2021/10/14 02:33:26;;;;;;;97.65;42.53;;;;;;;9.59;78.12;99247.53;4791940;29;20043;-88
2021/10/14 02:35:53;;;;;;;97.15;41.90;;;;;;;9.48;78.09;99227.88;4807876;29;20126;-85
2021/10/14 02:38:19;;;;;;;109.82;42.92;;;;;;;9.54;77.77;99245.75;4776482;29;20093;-85
2021/10/14 02:40:45;;;;;;;102.40;40.55;;;;;;;9.47;78.03;99239.91;4807847;29;20051;-86
2021/10/14 02:43:11;;;;;;;94.82;41.00;;;;;;;9.56;78.02;99251.69;4791747;29;20520;-86
2021/10/14 02:45:37;;;;;;;101.78;42.55;;;;;;;9.62;77.85;99253.19;4807970;29;20042;-85
2021/10/14 02:48:03;;;;;;;111.90;45.55;;;;;;;9.25;77.78;99207.13;4791041;29;20517;-85
2021/10/14 02:50:30;;;;;;;99.68;43.80;;;;;;;9.57;78.06;99261.50;4807563;29;20079;-85
2021/10/14 02:52:56;;;;;;;116.10;45.83;;;;;;;9.54;77.70;99253.13;4807546;29;20069;-85
2021/10/14 02:55:22;;;;;;;104.85;43.22;;;;;;;9.60;77.39;99262.78;4791616;29;20047;-84
2021/10/14 02:57:48;;;;;;;113.85;44.17;;;;;;;9.51;77.53;99238.16;4807703;29;20039;-84
2021/10/14 03:00:16;;;;;;;104.57;42.97;;;;;;;9.50;76.95;99225.63;4789730;29;20115;-84
2021/10/14 03:02:44;;;;;;;108.82;43.58;;;;;;;9.73;76.92;99263.84;4808430;29;20077;-89
2021/10/14 03:05:12;;;;;;;104.70;44.92;;;;;;;9.70;77.04;99261.75;4777120;29;20604;-85
2021/10/14 03:07:38;;;;;;;112.93;44.03;;;;;;;9.68;76.89;99262.06;4807478;29;20137;-88
2021/10/14 03:10:05;;;;;;;;;;;;;;;9.67;76.75;99259.63;4807202;29;20047;-85
2021/10/14 03:12:31;;;;;;;91.60;38.65;;;;;;;9.58;76.75;99259.56;4802956;29;20020;-88
2021/10/14 03:14:59;;;;;;;101.82;40.72;;;;;;;9.35;76.70;99215.06;4806176;29;20042;-85
2021/10/14 03:17:25;;;;;;;101.07;40.42;;;;;;;9.31;76.27;99219.53;4791066;29;20480;-85
2021/10/14 03:19:52;;;;;;;98.60;39.10;;;;;;;9.46;76.57;99243.72;4807500;29;20043;-85
2021/10/14 03:22:18;;;;;;;96.50;38.65;;;;;;;9.33;76.36;99222.75;4805418;29;20047;-85
2021/10/14 03:24:44;;;;;;;94.78;38.45;;;;;;;9.43;76.18;99235.34;4806683;29;20066;-90
2021/10/14 03:27:10;;;;;;;92.50;37.13;;;;;;;9.44;76.56;99234.22;4797108;29;20561;-85
2021/10/14 03:29:38;;;;;;;91.10;36.30;;;;;;;9.23;76.59;99215.59;4806776;29;20078;-86
2021/10/14 03:32:04;;;;;;;101.70;36.97;;;;;;;9.30;76.53;99240.53;4805461;29;20493;-86
2021/10/14 03:34:31;;;;;;;97.20;38.80;;;;;;;9.15;77.00;99219.06;4771692;30;20050;-90
2021/10/14 03:36:57;;;;;;;99.63;38.35;;;;;;;9.06;76.98;99218.94;4789029;29;20425;-85
2021/10/14 03:39:24;;;;;;;88.88;36.40;;;;;;;9.02;77.20;99215.22;4789053;30;20071;-85
2021/10/14 03:41:50;;;;;;;83.18;36.28;;;;;;;8.77;77.29;99175.66;4764068;29;20047;-85
2021/10/14 03:44:17;;;;;;;82.50;35.22;;;;;;;8.96;77.23;99204.72;4806959;29;20525;-86
2021/10/14 03:46:44;;;;;;;88.00;35.97;;;;;;;9.07;77.27;99220.59;4806072;29;20145;-86
2021/10/14 03:49:11;;;;;;;87.95;36.75;;;;;;;8.89;77.61;99195.03;4807269;29;20054;-87
2021/10/14 03:51:37;;;;;;;102.10;37.28;;;;;;;9.06;77.01;99208.03;4805485;29;20054;-85
2021/10/14 03:54:04;;;;;;;89.47;36.88;;;;;;;9.10;77.00;99208.25;4806273;29;20073;-85
2021/10/14 03:56:29;;;;;;;87.85;36.00;;;;;;;9.10;76.76;99217.22;4806428;29;20125;-85
2021/10/14 03:58:55;;;;;;;88.43;34.53;;;;;;;8.96;76.97;99185.66;4804290;29;20518;-88
2021/10/14 04:01:21;;;;;;;80.03;35.47;;;;;;;9.18;76.64;99210.25;4804323;29;20070;-83
2021/10/14 04:03:48;;;;;;;94.50;35.83;;;;;;;8.92;76.72;99169.91;4804943;29;20046;-84
2021/10/14 04:06:14;;;;;;;87.78;35.67;;;;;;;8.96;76.63;99172.81;4804532;29;20094;-81
2021/10/14 04:08:40;;;;;;;99.93;36.38;;;;;;;8.99;76.33;99163.22;4805186;29;20050;-83
2021/10/14 04:11:06;;;;;;;81.93;36.03;;;;;;;9.01;76.14;99175.44;4804660;29;20055;-81
2021/10/14 04:13:33;;;;;;;81.65;34.25;;;;;;;9.10;75.93;99167.34;4804818;29;20074;-84
2021/10/14 04:15:59;;;;;;;;;;;;;;;9.27;75.76;99186.59;4788865;29;20047;-83
2021/10/14 04:18:25;;;;;;;91.00;35.47;;;;;;;9.18;75.70;99167.44;4773774;29;19932;-81
2021/10/14 04:20:51;;;;;;;84.57;32.75;;;;;;;9.14;75.22;99171.09;4804737;29;20042;-84
2021/10/14 04:23:20;;;;;;;78.70;32.28;;;;;;;9.09;76.02;99165.72;4818068;29;20058;-85
2021/10/14 04:25:46;;;;;;;73.90;32.97;;;;;;;9.08;76.20;99158.69;4804517;29;20043;-82
2021/10/14 04:28:14;;;;;;;74.47;33.40;;;;;;;9.18;75.57;99166.63;4804754;29;20550;-76
2021/10/14 04:30:40;;;;;;;75.80;33.00;;;;;;;9.18;75.47;99156.53;4804608;29;20054;-78
2021/10/14 04:33:06;;;;;;;75.28;30.75;;;;;;;9.16;75.32;99152.47;4805340;29;20043;-88
2021/10/14 04:35:32;;;;;;;81.60;30.67;;;;;;;9.16;75.60;99150.56;4804572;29;20051;-74
2021/10/14 04:37:59;;;;;;;81.72;29.90;;;;;;;9.31;75.78;99149.41;4805149;29;20141;-77
2021/10/14 04:40:25;;;;;;;78.40;29.58;;;;;;;9.30;74.64;99155.97;4805113;29;20114;-83
2021/10/14 04:42:51;;;;;;;73.00;31.48;;;;;;;9.31;74.99;99164.97;4805182;29;20043;-77
2021/10/14 04:45:17;;;;;;;79.93;30.73;;;;;;;9.29;74.63;99157.09;4806079;29;20043;-78
2021/10/14 04:47:43;;;;;;;81.25;31.80;;;;;;;9.32;74.89;99156.47;4805851;29;20050;-76
2021/10/14 04:50:09;;;;;;;66.03;27.50;;;;;;;9.54;75.08;99152.16;4812996;29;20050;-81
2021/10/14 04:52:36;;;;;;;70.57;28.33;;;;;;;9.71;72.35;99155.00;4823827;29;20341;-90
2021/10/14 04:55:02;;;;;;;72.10;28.08;;;;;;;9.72;71.53;99142.16;4821721;29;20116;-77
2021/10/14 04:57:28;;;;;;;69.07;28.60;;;;;;;9.69;71.61;99148.22;4805334;29;20062;-77
2021/10/14 04:59:54;;;;;;;72.53;27.35;;;;;;;9.68;71.34;99138.44;4805651;29;20102;-83
2021/10/14 05:02:20;;;;;;;73.30;26.37;;;;;;;9.71;71.14;99141.34;4805526;29;20069;-76
2021/10/14 05:04:46;;;;;;;87.55;27.40;;;;;;;9.67;71.72;99134.06;4805496;29;20055;-77
2021/10/14 05:07:15;;;;;;;73.03;26.52;;;;;;;9.72;72.06;99151.16;4805324;29;20092;-86
2021/10/14 05:09:41;;;;;;;66.15;30.33;;;;;;;9.81;71.06;99160.19;4805354;29;20413;-77
2021/10/14 05:12:07;;;;;;;63.72;27.05;;;;;;;9.86;70.85;99157.31;4805195;29;20055;-77
2021/10/14 05:14:33;;;;;;;71.20;25.77;;;;;;;10.03;70.43;99164.00;4806001;29;20195;-80
2021/10/14 05:17:00;;;;;;;72.45;25.08;;;;;;;9.88;70.36;99125.06;4805706;29;20129;-76
2021/10/14 05:19:26;;;;;;;64.00;26.95;;;;;;;9.84;70.56;99151.41;4805542;29;20138;-87
2021/10/14 05:21:53;;;;;;;66.20;25.40;;;;;;;9.84;71.00;99147.88;4805794;29;20443;-90
2021/10/14 05:24:20;;;;;;;69.13;26.10;;;;;;;9.78;70.72;99133.53;4806506;29;20084;-91
2021/10/14 05:26:47;;;;;;;59.15;24.70;;;;;;;9.70;70.96;99136.19;4805817;29;20050;-87
2021/10/14 05:29:13;;;;;;;68.25;26.00;;;;;;;9.62;71.42;99124.91;4805439;29;20054;-87
2021/10/14 05:31:39;;;;;;;55.33;24.60;;;;;;;9.53;71.62;99124.03;4805789;29;20078;-86
2021/10/14 05:34:05;;;;;;;55.22;23.10;;;;;;;9.59;71.59;99125.53;4805842;29;20449;-90
2021/10/14 05:36:32;;;;;;;66.47;23.08;;;;;;;9.60;71.44;99129.91;4805413;29;20053;-77
2021/10/14 05:38:58;;;;;;;61.65;23.67;;;;;;;9.79;71.09;99126.13;4789029;29;20137;-90
2021/10/14 05:41:25;;;;;;;65.25;23.08;;;;;;;9.89;70.42;99112.22;4805455;29;20042;-82
2021/10/14 05:43:51;;;;;;;67.78;22.08;;;;;;;9.91;69.72;99107.25;4806061;29;20050;-89
2021/10/14 05:46:17;;;;;;;56.30;24.33;;;;;;;9.93;68.82;99110.47;4805894;29;20383;-86
2021/10/14 05:48:43;;;;;;;70.25;24.48;;;;;;;9.81;69.33;99097.41;4806060;29;20104;-90
2021/10/14 05:51:09;;;;;;;66.82;22.83;;;;;;;9.96;69.28;99119.97;4805973;29;20043;-89
2021/10/14 05:53:35;;;;;;;65.70;22.58;;;;;;;10.02;68.98;99121.44;4806004;29;20047;-91
2021/10/14 05:56:02;;;;;;;52.35;19.35;;;;;;;9.99;68.26;99111.94;4806027;29;20042;-87
2021/10/14 05:58:28;;;;;;;63.35;21.00;;;;;;;10.21;68.16;99137.59;4806382;29;20074;-91
2021/10/14 06:00:56;;;;;;;47.67;20.30;;;;;;;10.18;68.10;99128.09;4806079;29;20047;-89
2021/10/14 06:03:22;;;;;;;77.93;21.95;;;;;;;10.28;67.87;99125.13;4805917;29;20112;-92
2021/10/14 06:05:51;;;;;;;102.85;22.13;;;;;;;10.35;67.02;99121.94;4805714;29;20043;-80
2021/10/14 06:08:17;;;;;;;64.78;20.92;;;;;;;10.35;66.57;99124.66;4805031;29;20047;-82
2021/10/14 06:10:43;;;;;;;55.60;19.02;;;;;;;10.32;66.47;99111.63;4805111;29;20050;-89
2021/10/14 06:13:09;;;;;;;69.22;20.63;;;;;;;10.40;65.78;99115.50;4805233;29;20062;-83
2021/10/14 06:15:35;;;;;;;52.63;19.13;;;;;;;10.36;65.62;99109.88;4805351;29;20053;-81
2021/10/14 06:18:01;;;;;;;61.83;19.30;;;;;;;10.46;65.43;99112.34;4804963;29;20506;-78
2021/10/14 06:20:27;;;;;;;74.63;21.40;;;;;;;10.62;63.58;99117.34;4804797;29;20047;-81
2021/10/14 06:22:53;;;;;;;62.83;18.42;;;;;;;10.67;62.53;99117.22;4789012;29;20100;-76
2021/10/14 06:25:19;;;;;;;73.95;18.17;;;;;;;10.71;62.47;99115.44;4804924;29;20117;-88
2021/10/14 06:27:45;;;;;;;50.53;19.52;;;;;;;10.75;62.52;99103.53;4805249;29;20051;-77
2021/10/14 06:30:13;;;;;;;68.80;20.60;;;;;;;10.82;62.78;99098.41;4803454;29;20047;-90
2021/10/14 06:32:39;;;;;;;61.88;23.17;;;;;;;10.78;62.10;99099.38;4803028;29;20054;-83
2021/10/14 06:35:05;;;;;;;60.78;17.30;;;;;;;10.71;62.64;99079.91;4805051;29;20595;-82
2021/10/14 06:37:31;;;;;;;45.97;17.30;;;;;;;10.80;61.90;99099.88;4804620;29;20051;-89
2021/10/14 06:39:57;;;;;;;58.10;16.33;;;;;;;10.80;61.17;99078.00;4804768;29;20531;-86
2021/10/14 06:42:23;;;;;;;55.63;17.23;;;;;;;10.89;60.53;99097.94;4804910;29;20431;-78
2021/10/14 06:44:50;;;;;;;50.92;15.65;;;;;;;10.96;60.10;99102.94;4805502;29;20070;-86
2021/10/14 06:47:15;;;;;;;58.50;16.88;;;;;;;10.80;60.98;99081.53;4774545;29;20137;-89
2021/10/14 06:49:42;;;;;;;47.60;16.98;;;;;;;10.81;61.45;99085.88;4804453;29;20062;-90
2021/10/14 06:52:09;;;;;;;55.58;18.20;;;;;;;10.77;61.87;99082.16;4806061;29;20043;-90
2021/10/14 06:55:00;;;;;;;52.45;19.13;;;;;;;10.80;61.89;99080.72;4786746;29;20051;-87
2021/10/14 06:57:26;;;;;;;57.37;20.73;;;;;;;10.76;63.40;99068.81;4805176;29;20421;-87
2021/10/14 06:59:52;;;;;;;53.28;19.45;;;;;;;10.92;61.81;99091.81;4782744;30;20297;-86
2021/10/14 07:02:18;;;;;;;56.22;17.52;;;;;;;10.81;62.18;99076.88;4780672;30;20081;-85
2021/10/14 07:04:44;;;;;;;46.28;17.98;;;;;;;10.80;61.79;99080.72;4768327;30;20056;-86
2021/10/14 07:07:13;;;;;;;54.97;18.55;;;;;;;10.76;62.32;99086.03;4750088;30;20054;-86
2021/10/14 07:09:39;;;;;;;52.92;18.02;;;;;;;10.78;61.92;99086.50;4779526;30;20049;-85
2021/10/14 07:12:10;;;;;;;44.17;18.73;;;;;;;10.70;61.94;99068.19;4765768;30;20078;-86
2021/10/14 07:14:44;;;;;;;48.75;17.00;;;;;;;10.68;60.99;99056.75;4741812;30;20130;-88
2021/10/14 07:17:11;;;;;;;53.42;17.33;;;;;;;10.81;61.55;99087.81;4771244;30;20043;-89
2021/10/14 07:19:38;;;;;;;54.40;17.65;;;;;;;10.70;61.57;99076.38;4741461;30;20052;-86
2021/10/14 07:22:05;;;;;;;49.83;18.63;;;;;;;10.90;62.30;99087.81;4759756;30;20143;-87
2021/10/14 07:24:31;;;;;;;49.88;18.48;;;;;;;10.75;61.60;99056.28;4756094;30;20619;-87
2021/10/14 07:26:58;;;;;;;51.28;17.52;;;;;;;10.61;62.01;99041.94;4787092;30;20422;-89
2021/10/14 07:29:49;;;;;;;48.45;19.80;;;;;;;10.96;61.78;99102.94;4786718;30;20055;-87
2021/10/14 07:32:15;;;;;;;59.50;19.30;;;;;;;10.95;61.64;99096.66;4786342;30;20043;-85
2021/10/14 07:34:41;;;;;;;63.70;20.48;;;;;;;10.72;61.18;99063.19;4786320;30;20530;-89
2021/10/14 07:37:35;;;;;;;62.80;20.83;;;;;;;10.89;61.84;99091.66;4732835;30;20076;-85
2021/10/14 07:40:03;;;;;;;60.67;20.48;;;;;;;11.04;62.00;99104.88;4703689;30;20705;-90
2021/10/14 07:42:29;;;;;;;48.27;20.03;;;;;;;10.86;61.94;99079.47;4732827;30;20118;-88
2021/10/14 07:44:55;;;;;;;72.72;22.95;;;;;;;10.88;62.14;99068.19;4718411;30;20041;-90
2021/10/14 07:47:21;;;;;;;60.10;22.05;;;;;;;11.04;62.20;99099.41;4732534;30;20037;-85
2021/10/14 07:49:50;;;;;;;69.60;21.20;;;;;;;10.98;61.76;99095.22;4717624;30;20051;-89
2021/10/14 07:52:16;;;;;;;67.50;22.50;;;;;;;10.91;62.56;99062.88;4732670;30;20393;-89
2021/10/14 07:54:54;;;;;;;63.38;22.35;;;;;;;10.92;62.48;99091.81;4733335;30;20124;-89
2021/10/14 07:57:22;;;;;;;65.13;21.23;;;;;;;11.01;62.11;99094.56;4718676;30;20507;-88
2021/10/14 07:59:48;;;;;;;59.20;22.38;;;;;;;11.00;61.93;99085.56;4704134;30;20150;-89
2021/10/14 08:02:16;;;;;;;66.30;27.67;;;;;;;10.90;62.51;99076.88;4704191;30;20049;-90
2021/10/14 08:04:42;;;;;;;83.32;27.17;;;;;;;10.78;62.91;99080.25;4732747;30;20089;-90
2021/10/14 08:07:09;;;;;;;69.63;22.83;;;;;;;10.57;62.60;99069.13;4703180;30;20110;-89
2021/10/14 08:09:35;;;;;;;77.78;22.98;;;;;;;10.41;63.45;99057.81;4702527;30;20052;-90
2021/10/14 08:12:11;;;;;;;64.15;22.00;;;;;;;10.26;64.25;99017.28;4732321;30;20102;-89
2021/10/14 08:17:25;;;;;;;54.35;19.70;;;;;;;10.77;61.99;99067.69;4759270;30;20541;-90
2021/10/14 08:19:53;;;;;;;47.10;18.60;;;;;;;10.76;62.17;99060.59;4759253;30;20063;-91
2021/10/14 08:22:27;;;;;;;52.33;18.33;;;;;;;10.91;61.18;99076.56;4773756;30;20122;-88
2021/10/14 08:24:57;;;;;;;62.90;20.55;;;;;;;10.64;62.18;99022.97;4787853;30;20079;-88
2021/10/14 08:27:24;;;;;;;51.05;19.15;;;;;;;10.92;60.98;99050.81;4758265;30;20072;-91
2021/10/14 08:29:50;;;;;;;55.58;18.88;;;;;;;11.15;61.77;99072.53;4758103;30;20143;-93
2021/10/14 08:32:20;;;;;;;52.17;16.92;;;;;;;11.28;60.52;99058.66;4773577;30;20054;-90
2021/10/14 08:34:46;;;;;;;75.40;17.95;;;;;;;11.25;60.56;99048.38;4773310;30;20053;-90
2021/10/14 08:37:12;;;;;;;48.80;17.60;;;;;;;11.38;59.64;99064.94;4787591;30;20090;-90
2021/10/14 08:42:28;;;;;;;52.53;17.52;;;;;;;11.19;58.88;99054.34;4768543;30;20063;-89
2021/10/14 08:44:55;;;;;;;70.72;18.13;;;;;;;11.24;58.58;99051.44;4753114;30;20529;-88
2021/10/14 08:47:28;;;;;;;62.53;18.90;;;;;;;10.91;59.19;99002.72;4767623;30;20063;-84
2021/10/14 08:49:57;;;;;;;59.67;22.15;;;;;;;11.07;58.90;99007.69;4767563;30;20067;-86
2021/10/14 08:52:23;;;;;;;53.88;19.00;;;;;;;11.23;58.16;99038.91;4767387;30;20047;-88
2021/10/14 08:54:50;;;;;;;68.60;21.70;;;;;;;11.25;57.62;99037.44;4752502;30;20514;-87
2021/10/14 08:57:16;;;;;;;64.05;20.40;;;;;;;11.31;58.47;99032.59;4767693;30;20055;-88
2021/10/14 08:59:42;;;;;;;57.58;21.13;;;;;;;11.42;59.25;99049.47;4753207;30;20055;-89
2021/10/14 09:02:08;;;;;;;66.43;23.33;;;;;;;11.45;59.52;99051.56;4767900;30;20051;-86
2021/10/14 09:04:42;;;;;;;64.22;22.67;;;;;;;11.13;58.66;98999.00;4766587;29;20055;-88
2021/10/14 09:07:15;;;;;;;61.97;16.90;;;;;;;11.38;58.29;99046.59;4803701;29;20058;-86
2021/10/14 09:09:57;;;;;;;66.13;19.17;;;;;;;11.33;59.41;99046.78;4775734;30;20079;-88
2021/10/14 09:12:24;;;;;;;59.50;19.40;;;;;;;11.03;59.92;98991.13;4767335;29;20134;-89
2021/10/14 09:15:07;;;;;;;58.38;19.77;;;;;;;11.39;60.09;99048.22;4764841;30;20043;-89
2021/10/14 09:17:51;;;;;;;52.78;18.38;;;;;;;10.93;59.63;98973.13;4785224;30;20580;-88
2021/10/14 09:20:44;;;;;;;54.03;18.25;;;;;;;11.19;59.77;99025.06;4790211;29;20058;-88
2021/10/14 09:23:16;;;;;;;56.38;21.15;;;;;;;11.26;60.66;99046.47;4782271;29;20054;-87
2021/10/14 09:25:50;;;;;;;57.70;20.30;;;;;;;11.32;60.30;99047.06;4788467;29;20043;-88
2021/10/14 09:28:22;;;;;;;66.50;19.48;;;;;;;11.37;61.21;99042.25;4773368;29;20053;-84
2021/10/14 09:30:54;;;;;;;52.90;19.30;;;;;;;11.43;60.54;99040.16;4805310;29;20528;-74
2021/10/14 09:33:46;;;;;;;66.72;20.92;;;;;;;11.39;61.54;99036.44;4806595;29;20054;-89
2021/10/14 09:36:28;;;;;;;67.70;23.67;;;;;;;11.33;60.74;99033.09;4808693;29;20582;-77
2021/10/14 09:38:57;;;;;;;74.20;25.55;;;;;;;11.36;61.59;99037.13;4807016;29;20088;-76
2021/10/14 09:41:25;;;;;;;69.93;27.35;;;;;;;11.38;63.26;99038.38;4801712;29;20046;-76
2021/10/14 09:43:56;;;;;;;73.32;24.48;;;;;;;11.38;62.06;99035.63;4788122;30;20057;-77
2021/10/14 09:46:33;;;;;;;68.60;23.38;;;;;;;11.37;62.27;99046.94;4788951;29;20043;-80
2021/10/14 09:48:59;;;;;;;72.75;21.38;;;;;;;11.36;62.95;99034.38;4789616;29;20051;-90
2021/10/14 09:51:25;;;;;;;72.30;21.83;;;;;;;11.36;63.14;99035.19;4791541;29;20121;-83
2021/10/14 09:53:51;;;;;;;72.20;23.60;;;;;;;11.36;63.81;99035.19;4789743;29;20042;-87
2021/10/14 09:56:19;;;;;;;60.78;20.10;;;;;;;11.36;63.37;99034.38;4788103;29;20062;-77
2021/10/14 09:58:46;;;;;;;60.20;22.25;;;;;;;11.31;64.92;99040.00;4787105;29;20055;-87
2021/10/14 10:01:13;;;;;;;79.25;26.45;;;;;;;11.30;66.03;99039.22;4799707;29;20100;-79
2021/10/14 10:03:39;;;;;;;74.90;22.30;;;;;;;11.29;65.56;99029.38;4803329;29;20109;-78
2021/10/14 10:06:07;;;;;;;53.45;20.25;;;;;;;11.30;64.23;99028.25;4824833;29;20289;-79
2021/10/14 10:08:40;;;;;;;83.80;24.48;;;;;;;11.32;64.86;99039.66;4787227;30;20073;-87
2021/10/14 10:11:17;;;;;;;64.22;22.65;;;;;;;11.20;65.55;99026.66;4787407;29;20137;-79
2021/10/14 10:13:47;;;;;;;65.55;21.98;;;;;;;11.21;65.59;99043.88;4787175;30;20078;-92
2021/10/14 10:16:25;;;;;;;63.88;21.45;;;;;;;10.90;66.04;99027.66;4801326;29;20108;-90
2021/10/14 10:18:50;;;;;;;;;;;;;;;10.90;66.03;99038.59;4801177;29;20141;-88
2021/10/14 10:21:43;;;;;;;69.87;21.83;;;;;;;10.83;65.65;99039.09;4805560;29;20052;-79
2021/10/14 10:24:32;;;;;;;62.97;21.70;;;;;;;10.80;66.78;99043.25;4802599;29;20464;-90
2021/10/14 10:26:59;;;;;;;76.53;20.10;;;;;;;10.85;66.26;99030.53;4804692;29;20125;-85
2021/10/14 10:29:28;;;;;;;52.17;20.67;;;;;;;10.87;65.30;99042.78;4805264;29;20051;-81
2021/10/14 10:31:55;;;;;;;63.97;21.58;;;;;;;10.82;66.72;99040.19;4806424;29;20062;-81
2021/10/14 10:34:49;;;;;;;70.57;22.20;;;;;;;10.87;66.57;99034.56;4808719;29;20047;-90
2021/10/14 10:37:36;;;;;;;84.88;20.77;;;;;;;10.82;66.09;99027.31;4808713;29;20394;-81
2021/10/14 10:40:15;;;;;;;58.13;21.30;;;;;;;10.71;66.53;99014.31;4791891;29;20533;-87
2021/10/14 10:42:45;;;;;;;68.20;20.90;;;;;;;10.61;66.83;99009.16;4808156;29;20134;-80
2021/10/14 10:45:13;;;;;;;69.80;21.52;;;;;;;10.71;65.75;99011.56;4808510;29;20108;-87
2021/10/14 10:47:54;;;;;;;70.15;20.70;;;;;;;10.77;66.49;99023.97;4792282;29;20049;-91
2021/10/14 10:50:29;;;;;;;71.38;23.38;;;;;;;10.78;66.95;99009.16;4808401;29;20055;-85
2021/10/14 10:53:05;;;;;;;72.55;21.92;;;;;;;10.59;67.17;98995.78;4808008;29;20047;-89
2021/10/14 10:55:31;;;;;;;68.27;21.90;;;;;;;10.62;68.10;99016.22;4808142;29;20073;-82
2021/10/14 10:58:01;;;;;;;59.88;21.02;;;;;;;10.44;68.09;99009.94;4807602;29;20055;-78
2021/10/14 11:00:28;;;;;;;64.57;20.27;;;;;;;10.42;67.89;99012.19;4807746;29;20059;-80
2021/10/14 11:03:11;;;;;;;59.90;20.58;;;;;;;10.51;67.96;99010.25;4807928;29;20042;-90
2021/10/14 11:05:41;;;;;;;65.50;21.02;;;;;;;10.65;68.28;99012.84;4807443;29;20511;-86
2021/10/14 11:08:09;;;;;;;64.43;19.70;;;;;;;10.56;67.66;98991.78;4807561;29;20050;-87
2021/10/14 11:10:38;;;;;;;64.60;21.75;;;;;;;10.72;68.12;98999.50;4776173;29;20107;-88
2021/10/14 11:13:05;;;;;;;84.10;20.55;;;;;;;10.58;67.37;98986.00;4792071;29;20050;-88
2021/10/14 11:15:36;;;;;;;59.95;19.33;;;;;;;10.43;67.66;98973.63;4777936;29;20055;-89
2021/10/14 11:18:04;;;;;;;71.15;19.42;;;;;;;10.64;67.88;99006.56;4808174;29;20517;-88
2021/10/14 11:20:31;;;;;;;72.38;20.90;;;;;;;10.52;67.08;98985.34;4791388;29;20112;-89
2021/10/14 11:23:06;;;;;;;70.10;21.45;;;;;;;10.31;67.31;98949.66;4790880;29;20047;-89
2021/10/14 11:25:36;;;;;;;80.88;21.30;;;;;;;10.71;67.35;98992.44;4762189;29;20122;-89
2021/10/14 11:28:04;;;;;;;74.35;22.50;;;;;;;10.63;67.54;98976.81;4761634;29;20137;-88
2021/10/14 11:30:48;;;;;;;73.13;20.30;;;;;;;10.76;67.08;99005.94;4807548;29;20054;-89